createdAt,value
2017-08-17T00:02:01.465Z,82.80
2017-08-17T00:04:29.112Z,82.80
2017-08-17T00:06:56.786Z,83.00
2017-08-17T00:09:24.809Z,83.20
2017-08-17T00:11:52.455Z,83.20
2017-08-17T00:14:20.142Z,83.00
2017-08-17T00:16:47.847Z,82.90
2017-08-17T00:19:15.490Z,82.70
2017-08-17T00:21:43.238Z,82.60
2017-08-17T00:24:10.862Z,82.50
2017-08-17T00:26:38.490Z,82.50
2017-08-17T00:29:06.278Z,82.40
2017-08-17T00:31:34.025Z,82.50
2017-08-17T00:34:01.669Z,82.40
2017-08-17T00:36:29.374Z,82.50
2017-08-17T00:38:57.068Z,82.60
2017-08-17T00:41:24.739Z,82.60
2017-08-17T00:43:52.863Z,82.40
2017-08-17T00:46:20.508Z,82.40
2017-08-17T00:48:48.255Z,82.40
2017-08-17T00:51:16.031Z,82.30
2017-08-17T00:53:44.158Z,82.70
2017-08-17T00:56:11.830Z,82.70
2017-08-17T00:58:39.931Z,82.70
2017-08-17T01:01:07.581Z,82.70
2017-08-17T01:03:35.270Z,82.70
2017-08-17T01:06:03.104Z,82.80
2017-08-17T01:08:30.796Z,82.70
2017-08-17T01:10:58.494Z,83.00
2017-08-17T01:13:26.193Z,83.10
2017-08-17T01:15:53.987Z,83.50
2017-08-17T01:18:21.740Z,83.80
2017-08-17T01:20:49.584Z,84.10
2017-08-17T01:23:17.332Z,84.00
2017-08-17T01:25:45.129Z,83.90
2017-08-17T01:28:12.928Z,84.10
2017-08-17T01:30:40.626Z,84.00
2017-08-17T01:33:08.425Z,83.80
2017-08-17T01:35:36.275Z,83.90
2017-08-17T01:38:03.990Z,83.80
2017-08-17T01:40:31.693Z,83.60
2017-08-17T01:42:59.926Z,83.70
2017-08-17T01:45:27.629Z,83.70
2017-08-17T01:47:55.419Z,83.10
2017-08-17T01:50:23.269Z,83.30
2017-08-17T01:52:51.017Z,83.40
2017-08-17T01:55:18.722Z,83.90
2017-08-17T01:57:46.613Z,83.50
2017-08-17T02:00:14.362Z,83.10
2017-08-17T02:02:42.107Z,83.00
2017-08-17T02:05:09.801Z,83.20
2017-08-17T02:07:37.501Z,83.60
2017-08-17T02:10:05.121Z,83.60
2017-08-17T02:12:32.810Z,83.90
2017-08-17T02:15:00.538Z,83.60
2017-08-17T02:17:28.165Z,83.40
2017-08-17T02:19:55.843Z,83.30
2017-08-17T02:22:23.575Z,83.30
2017-08-17T02:24:51.219Z,83.60
2017-08-17T02:27:18.966Z,83.80
2017-08-17T02:29:46.610Z,84.10
2017-08-17T02:32:14.257Z,83.70
2017-08-17T02:34:41.946Z,83.90
2017-08-17T02:37:09.573Z,84.30
2017-08-17T02:39:37.706Z,85.70
2017-08-17T02:42:05.454Z,85.70
2017-08-17T02:44:33.098Z,86.30
2017-08-17T02:47:00.741Z,86.60
2017-08-17T02:49:28.489Z,87.00
2017-08-17T02:51:56.170Z,87.20
2017-08-17T02:54:23.841Z,87.20
2017-08-17T02:56:51.547Z,86.90
2017-08-17T02:59:19.277Z,86.90
2017-08-17T03:01:47.019Z,86.80
2017-08-17T03:04:14.767Z,87.10
2017-08-17T03:06:42.514Z,86.70
2017-08-17T03:09:10.460Z,86.50
2017-08-17T03:11:38.216Z,86.40
2017-08-17T03:14:05.861Z,86.70
2017-08-17T03:16:33.509Z,86.90
2017-08-17T03:19:01.252Z,86.90
2017-08-17T03:21:28.874Z,87.10
2017-08-17T03:23:56.541Z,87.30
2017-08-17T03:26:24.288Z,87.40
2017-08-17T03:28:51.933Z,87.60
2017-08-17T03:31:19.576Z,87.80
2017-08-17T03:33:47.355Z,87.40
2017-08-17T03:36:15.389Z,87.00
2017-08-17T03:38:43.128Z,87.00
2017-08-17T03:41:10.875Z,86.40
2017-08-17T03:43:38.521Z,86.10
2017-08-17T03:46:06.165Z,86.10
2017-08-17T03:48:33.842Z,85.70
2017-08-17T03:51:01.968Z,86.30
2017-08-17T03:53:29.717Z,86.30
2017-08-17T03:55:57.411Z,86.30
2017-08-17T03:58:25.042Z,86.30
2017-08-17T04:00:53.161Z,86.10
2017-08-17T04:03:20.838Z,86.10
2017-08-17T04:05:48.962Z,85.90
2017-08-17T04:08:16.626Z,85.90
2017-08-17T04:10:44.323Z,85.70
2017-08-17T04:13:11.949Z,85.90
2017-08-17T04:15:39.648Z,86.00
2017-08-17T04:18:07.350Z,86.40
2017-08-17T04:20:35.038Z,86.10
2017-08-17T04:23:02.785Z,86.20
2017-08-17T04:25:30.477Z,86.30
2017-08-17T04:27:58.177Z,86.30
2017-08-17T04:30:25.827Z,86.20
2017-08-17T04:32:53.671Z,85.90
2017-08-17T04:35:21.315Z,85.80
2017-08-17T04:37:49.063Z,85.90
2017-08-17T04:40:16.746Z,85.60
2017-08-17T04:42:44.772Z,86.30
2017-08-17T04:45:12.418Z,86.30
2017-08-17T04:47:40.155Z,86.40
2017-08-17T04:50:07.802Z,87.00
2017-08-17T04:52:35.438Z,87.40
2017-08-17T04:55:03.203Z,87.20
2017-08-17T04:57:48.553Z,87.30
2017-08-17T05:00:16.250Z,87.00
2017-08-17T05:02:43.942Z,86.40
2017-08-17T05:05:11.571Z,85.20
2017-08-17T05:07:39.338Z,85.00
2017-08-17T05:10:07.085Z,84.50
2017-08-17T05:12:34.832Z,84.40
2017-08-17T05:15:02.529Z,84.20
2017-08-17T05:17:30.223Z,84.00
2017-08-17T05:19:57.862Z,83.70
2017-08-17T05:22:25.538Z,83.30
2017-08-17T05:24:53.685Z,82.20
2017-08-17T05:27:21.417Z,82.20
2017-08-17T05:29:49.106Z,82.40
2017-08-17T05:32:16.808Z,82.60
2017-08-17T05:34:44.454Z,82.80
2017-08-17T05:37:12.139Z,82.90
2017-08-17T05:39:40.254Z,83.80
2017-08-17T05:42:07.904Z,83.80
2017-08-17T05:44:35.593Z,84.80
2017-08-17T05:47:03.301Z,83.40
2017-08-17T05:49:31.044Z,83.40
2017-08-17T05:51:58.826Z,83.00
2017-08-17T05:54:27.005Z,83.20
2017-08-17T05:56:54.692Z,83.20
2017-08-17T05:59:22.439Z,82.70
2017-08-17T06:01:50.186Z,82.30
2017-08-17T06:04:17.830Z,81.20
2017-08-17T06:06:45.505Z,79.40
2017-08-17T06:09:13.547Z,77.70
2017-08-17T06:11:41.277Z,77.70
2017-08-17T06:14:08.986Z,78.20
2017-08-17T06:16:36.623Z,77.70
2017-08-17T06:19:04.423Z,78.00
2017-08-17T06:21:32.166Z,77.70
2017-08-17T06:24:00.015Z,77.30
2017-08-17T06:26:27.659Z,76.80
2017-08-17T06:28:55.345Z,76.50
2017-08-17T06:31:23.378Z,76.70
2017-08-17T06:33:51.010Z,76.70
2017-08-17T06:36:18.689Z,77.10
2017-08-17T06:38:46.806Z,77.20
2017-08-17T06:41:14.553Z,77.20
2017-08-17T06:43:42.300Z,76.00
2017-08-17T06:46:09.921Z,75.90
2017-08-17T06:48:37.546Z,76.00
2017-08-17T06:51:05.340Z,75.50
2017-08-17T06:53:33.021Z,75.00
2017-08-17T06:56:01.048Z,74.50
2017-08-17T06:58:28.785Z,74.60
2017-08-17T07:00:56.425Z,74.40
2017-08-17T07:03:24.050Z,74.10
2017-08-17T07:05:51.823Z,74.50
2017-08-17T07:08:19.467Z,74.40
2017-08-17T07:10:47.110Z,75.10
2017-08-17T07:13:14.858Z,75.90
2017-08-17T07:15:42.485Z,74.60
2017-08-17T07:18:10.114Z,74.10
2017-08-17T07:20:37.899Z,73.00
2017-08-17T07:23:05.529Z,72.80
2017-08-17T07:25:33.188Z,72.60
2017-08-17T07:28:00.961Z,70.80
2017-08-17T07:30:29.013Z,71.60
2017-08-17T07:32:57.146Z,71.30
2017-08-17T07:35:24.821Z,71.30
2017-08-17T07:37:52.949Z,70.40
2017-08-17T07:40:20.591Z,70.40
2017-08-17T07:42:48.338Z,69.90
2017-08-17T07:45:16.086Z,69.80
2017-08-17T07:47:43.718Z,69.20
2017-08-17T07:50:11.484Z,68.90
2017-08-17T07:52:39.228Z,67.90
2017-08-17T07:55:06.975Z,67.90
2017-08-17T07:57:34.710Z,65.80
2017-08-17T08:00:02.367Z,65.80
2017-08-17T08:02:30.114Z,65.70
2017-08-17T08:04:57.963Z,67.10
2017-08-17T08:07:25.710Z,68.40
2017-08-17T08:09:53.343Z,68.50
2017-08-17T08:12:21.102Z,69.40
2017-08-17T08:14:48.746Z,69.20
2017-08-17T08:17:16.495Z,66.50
2017-08-17T08:19:44.190Z,66.20
2017-08-17T08:22:11.886Z,65.00
2017-08-17T08:24:39.534Z,64.20
2017-08-17T08:27:07.230Z,65.00
2017-08-17T08:29:34.849Z,64.90
2017-08-17T08:32:02.980Z,66.30
2017-08-17T08:34:30.662Z,66.30
2017-08-17T08:36:58.780Z,65.80
2017-08-17T08:39:26.406Z,65.80
2017-08-17T08:41:54.173Z,65.40
2017-08-17T08:44:21.817Z,64.20
2017-08-17T08:46:49.565Z,63.90
2017-08-17T08:49:17.337Z,63.90
2017-08-17T08:51:45.474Z,63.60
2017-08-17T08:54:13.190Z,63.60
2017-08-17T08:56:40.969Z,62.40
2017-08-17T08:59:08.610Z,62.40
2017-08-17T09:01:36.294Z,61.70
2017-08-17T09:04:03.983Z,62.30
2017-08-17T09:06:31.614Z,60.90
2017-08-17T09:08:59.245Z,61.60
2017-08-17T09:11:26.939Z,62.80
2017-08-17T09:13:54.581Z,60.20
2017-08-17T09:16:22.205Z,61.20
2017-08-17T09:18:49.881Z,60.80
2017-08-17T09:21:17.617Z,61.40
2017-08-17T09:23:45.237Z,62.70
2017-08-17T09:26:13.111Z,62.10
2017-08-17T09:28:40.858Z,60.50
2017-08-17T09:31:08.497Z,61.10
2017-08-17T09:33:36.170Z,60.70
2017-08-17T09:36:03.898Z,60.10
2017-08-17T09:38:31.543Z,60.00
2017-08-17T09:40:59.392Z,61.20
2017-08-17T09:43:27.036Z,61.70
2017-08-17T09:45:54.714Z,60.20
2017-08-17T09:48:22.881Z,59.70
2017-08-17T09:50:50.586Z,59.70
2017-08-17T09:53:18.229Z,58.90
2017-08-17T09:55:45.909Z,60.80
2017-08-17T09:58:13.936Z,61.60
2017-08-17T10:00:41.676Z,61.60
2017-08-17T10:03:09.458Z,60.10
2017-08-17T10:05:37.174Z,59.30
2017-08-17T10:08:04.803Z,57.50
2017-08-17T10:10:32.669Z,59.50
2017-08-17T10:13:00.414Z,58.80
2017-08-17T10:15:28.059Z,59.50
2017-08-17T10:17:56.909Z,60.10
2017-08-17T10:20:24.577Z,58.30
2017-08-17T10:22:52.222Z,58.10
2017-08-17T10:25:19.970Z,58.60
2017-08-17T10:27:47.613Z,57.50
2017-08-17T10:30:15.245Z,57.10
2017-08-17T10:32:43.108Z,58.50
2017-08-17T10:35:10.754Z,58.60
2017-08-17T10:37:38.400Z,58.00
2017-08-17T10:40:06.152Z,57.20
2017-08-17T10:42:33.792Z,56.70
2017-08-17T10:45:01.438Z,56.70
2017-08-17T10:47:29.184Z,58.20
2017-08-17T10:49:56.829Z,56.30
2017-08-17T10:52:24.451Z,54.60
2017-08-17T10:54:52.220Z,54.70
2017-08-17T10:57:19.865Z,54.60
2017-08-17T10:59:47.509Z,54.40
2017-08-17T11:02:15.258Z,56.30
2017-08-17T11:04:42.894Z,57.10
2017-08-17T11:07:10.547Z,56.80
2017-08-17T11:09:38.299Z,55.30
2017-08-17T11:12:06.045Z,54.80
2017-08-17T11:14:33.689Z,53.60
2017-08-17T11:17:01.374Z,54.60
2017-08-17T11:19:29.081Z,56.10
2017-08-17T11:21:56.714Z,55.20
2017-08-17T11:24:24.473Z,54.60
2017-08-17T11:26:52.132Z,54.40
2017-08-17T11:29:19.774Z,53.90
2017-08-17T11:31:47.466Z,54.20
2017-08-17T11:34:15.600Z,55.40
2017-08-17T11:36:43.223Z,55.40
2017-08-17T11:39:10.930Z,53.70
2017-08-17T11:41:39.049Z,55.10
2017-08-17T11:44:06.796Z,55.10
2017-08-17T11:46:34.543Z,55.30
2017-08-17T11:49:02.186Z,54.70
2017-08-17T11:51:29.422Z,52.80
2017-08-17T11:53:57.171Z,54.40
2017-08-17T11:56:24.815Z,54.90
2017-08-17T11:58:52.458Z,52.80
2017-08-17T12:01:20.142Z,55.30
2017-08-17T12:03:48.260Z,55.60
2017-08-17T12:06:15.904Z,55.60
2017-08-17T12:08:43.652Z,54.30
2017-08-17T12:11:11.398Z,56.70
2017-08-17T12:13:39.046Z,54.30
2017-08-17T12:16:06.730Z,56.00
2017-08-17T12:18:34.849Z,54.20
2017-08-17T12:21:02.484Z,54.20
2017-08-17T12:23:30.239Z,55.90
2017-08-17T12:25:57.873Z,55.30
2017-08-17T12:28:25.506Z,52.70
2017-08-17T12:30:53.278Z,54.20
2017-08-17T12:33:20.956Z,52.30
2017-08-17T12:35:49.078Z,51.80
2017-08-17T12:38:16.825Z,51.80
2017-08-17T12:40:44.469Z,52.30
2017-08-17T12:43:12.095Z,54.00
2017-08-17T12:45:39.779Z,52.00
2017-08-17T12:48:07.511Z,54.40
2017-08-17T12:50:35.154Z,54.00
2017-08-17T12:53:02.902Z,53.40
2017-08-17T12:55:30.546Z,56.50
2017-08-17T12:57:58.190Z,57.10
2017-08-17T13:00:25.881Z,57.60
2017-08-17T13:02:53.514Z,57.00
2017-08-17T13:05:21.229Z,58.20
2017-08-17T13:07:48.975Z,58.50
2017-08-17T13:10:16.720Z,57.80
2017-08-17T13:12:44.365Z,58.20
2017-08-17T13:15:12.114Z,57.40
2017-08-17T13:17:39.760Z,56.40
2017-08-17T13:20:07.405Z,57.10
2017-08-17T13:22:35.153Z,56.10
2017-08-17T13:25:02.796Z,55.40
2017-08-17T13:27:30.418Z,55.40
2017-08-17T13:29:58.190Z,56.30
2017-08-17T13:32:25.814Z,52.50
2017-08-17T13:34:53.442Z,54.70
2017-08-17T13:37:21.225Z,55.80
2017-08-17T13:39:48.857Z,55.20
2017-08-17T13:42:16.515Z,54.70
2017-08-17T13:44:44.364Z,55.50
2017-08-17T13:47:12.010Z,55.20
2017-08-17T13:49:39.646Z,54.20
2017-08-17T13:52:07.333Z,55.30
2017-08-17T13:54:35.459Z,55.70
2017-08-17T13:57:03.102Z,55.70
2017-08-17T13:59:30.850Z,55.80
2017-08-17T14:01:58.495Z,55.00
2017-08-17T14:04:26.139Z,55.80
2017-08-17T14:06:53.822Z,54.90
2017-08-17T14:09:21.941Z,54.70
2017-08-17T14:11:49.585Z,54.70
2017-08-17T14:14:17.333Z,54.20
2017-08-17T14:16:44.977Z,53.60
2017-08-17T14:19:49.379Z,54.20
2017-08-17T14:22:17.025Z,55.30
2017-08-17T14:24:44.673Z,54.60
2017-08-17T14:27:12.418Z,55.40
2017-08-17T14:29:40.169Z,56.20
2017-08-17T14:32:07.916Z,56.60
2017-08-17T14:34:35.597Z,56.00
2017-08-17T14:37:03.306Z,56.40
2017-08-17T14:39:30.950Z,56.80
2017-08-17T14:41:58.698Z,56.50
2017-08-17T14:44:26.345Z,56.30
2017-08-17T14:46:53.986Z,57.00
2017-08-17T14:49:21.734Z,56.10
2017-08-17T14:51:49.379Z,57.20
2017-08-17T14:54:17.126Z,57.40
2017-08-17T14:56:44.861Z,57.50
2017-08-17T14:59:12.507Z,58.40
2017-08-17T15:01:40.194Z,58.40
2017-08-17T15:04:07.886Z,57.20
2017-08-17T15:06:35.560Z,57.30
2017-08-17T15:09:03.305Z,56.20
2017-08-17T15:11:31.052Z,57.40
2017-08-17T15:13:58.800Z,57.50
2017-08-17T15:16:26.522Z,57.00
2017-08-17T15:18:54.293Z,56.40
2017-08-17T15:21:21.937Z,56.80
2017-08-17T15:23:49.581Z,56.60
2017-08-17T15:26:17.360Z,56.60
2017-08-17T15:28:45.077Z,56.00
2017-08-17T15:31:12.715Z,57.00
2017-08-17T15:33:40.390Z,56.80
2017-08-17T15:36:08.116Z,57.10
2017-08-17T15:38:35.760Z,56.70
2017-08-17T15:41:03.442Z,56.40
2017-08-17T15:43:31.153Z,56.70
2017-08-17T15:45:58.799Z,57.00
2017-08-17T15:48:26.545Z,57.00
2017-08-17T15:50:54.293Z,57.30
2017-08-17T15:53:22.041Z,57.00
2017-08-17T15:55:49.727Z,57.10
2017-08-17T15:58:17.430Z,57.30
2017-08-17T16:00:45.075Z,57.40
2017-08-17T16:03:12.758Z,57.60
2017-08-17T16:05:40.673Z,58.20
2017-08-17T16:08:08.312Z,57.10
2017-08-17T16:10:36.066Z,58.10
2017-08-17T16:13:03.716Z,58.60
2017-08-17T16:15:31.345Z,59.10
2017-08-17T16:17:59.103Z,59.30
2017-08-17T16:20:26.851Z,59.70
2017-08-17T16:22:54.482Z,60.00
2017-08-17T16:25:22.345Z,60.70
2017-08-17T16:27:49.989Z,60.80
2017-08-17T16:30:17.633Z,60.50
2017-08-17T16:32:45.463Z,60.70
2017-08-17T16:35:13.128Z,61.20
2017-08-17T16:37:40.765Z,61.10
2017-08-17T16:40:08.523Z,60.40
2017-08-17T16:42:36.159Z,61.00
2017-08-17T16:45:03.812Z,61.30
2017-08-17T16:47:31.560Z,61.90
2017-08-17T16:49:59.194Z,62.50
2017-08-17T16:52:26.848Z,61.80
2017-08-17T16:54:54.534Z,61.40
2017-08-17T16:57:22.240Z,61.60
2017-08-17T16:59:49.884Z,61.60
2017-08-17T17:02:17.666Z,62.80
2017-08-17T17:04:45.380Z,62.50
2017-08-17T17:07:13.024Z,63.70
2017-08-17T17:09:40.777Z,62.90
2017-08-17T17:12:08.419Z,62.80
2017-08-17T17:14:36.063Z,63.00
2017-08-17T17:17:03.811Z,63.60
2017-08-17T17:19:31.559Z,63.40
2017-08-17T17:21:59.305Z,64.60
2017-08-17T17:24:27.114Z,65.50
2017-08-17T17:26:54.800Z,66.90
2017-08-17T17:29:22.550Z,66.60
2017-08-17T17:31:50.257Z,67.70
2017-08-17T17:34:17.940Z,67.50
2017-08-17T17:36:45.637Z,67.70
2017-08-17T17:39:13.346Z,67.00
2017-08-17T17:41:41.038Z,67.40
2017-08-17T17:44:08.670Z,67.80
2017-08-17T17:46:36.472Z,67.90
2017-08-17T17:49:04.113Z,68.10
2017-08-17T17:51:31.864Z,68.30
2017-08-17T17:53:59.572Z,68.60
2017-08-17T17:56:27.218Z,69.20
2017-08-17T17:58:54.867Z,69.40
2017-08-17T18:01:22.577Z,69.70
2017-08-17T18:03:50.295Z,69.90
2017-08-17T18:06:18.039Z,70.40
2017-08-17T18:08:45.788Z,71.00
2017-08-17T18:11:13.431Z,71.50
2017-08-17T18:13:41.159Z,71.70
2017-08-17T18:16:08.928Z,71.80
2017-08-17T18:18:36.577Z,72.40
2017-08-17T18:21:04.253Z,72.50
2017-08-17T18:23:31.966Z,72.40
2017-08-17T18:25:59.713Z,72.90
2017-08-17T18:28:27.463Z,72.90
2017-08-17T18:30:55.206Z,73.20
2017-08-17T18:33:22.857Z,73.20
2017-08-17T18:35:50.560Z,73.20
2017-08-17T18:38:18.279Z,73.20
2017-08-17T18:40:45.990Z,73.20
2017-08-17T18:43:13.737Z,73.30
2017-08-17T18:45:41.418Z,73.80
2017-08-17T18:48:09.131Z,74.30
2017-08-17T18:50:36.776Z,73.50
2017-08-17T18:53:04.474Z,73.00
2017-08-17T18:55:32.171Z,72.70
2017-08-17T18:57:59.830Z,72.40
2017-08-17T19:00:27.544Z,72.80
2017-08-17T19:02:55.184Z,72.70
2017-08-17T19:05:22.831Z,72.70
2017-08-17T19:07:50.525Z,72.80
2017-08-17T19:10:18.241Z,72.80
2017-08-17T19:12:45.988Z,73.20
2017-08-17T19:15:13.734Z,73.20
2017-08-17T19:17:41.482Z,73.30
2017-08-17T19:20:09.232Z,73.40
2017-08-17T19:22:36.985Z,73.30
2017-08-17T19:25:04.728Z,73.40
2017-08-17T19:27:32.475Z,74.40
2017-08-17T19:30:00.221Z,74.90
2017-08-17T19:32:27.980Z,74.90
2017-08-17T19:34:55.642Z,75.50
2017-08-17T19:37:23.463Z,75.50
2017-08-17T19:39:51.210Z,75.70
2017-08-17T19:42:18.958Z,75.90
2017-08-17T19:44:46.706Z,76.10
2017-08-17T19:47:14.554Z,76.30
2017-08-17T19:49:42.227Z,76.30
2017-08-17T19:52:09.969Z,76.70
2017-08-17T19:54:37.606Z,76.50
2017-08-17T19:57:05.255Z,76.90
2017-08-17T19:59:32.954Z,76.70
2017-08-17T20:02:00.628Z,76.90
2017-08-17T20:04:28.376Z,76.40
2017-08-17T20:06:56.071Z,76.50
2017-08-17T20:09:23.728Z,76.70
2017-08-17T20:11:51.414Z,76.40
2017-08-17T20:14:19.162Z,77.00
2017-08-17T20:16:46.806Z,77.60
2017-08-17T20:19:14.488Z,77.70
2017-08-17T20:21:42.173Z,77.90
2017-08-17T20:24:09.813Z,78.20
2017-08-17T20:26:37.493Z,77.90
2017-08-17T20:29:05.178Z,77.90
2017-08-17T20:31:32.826Z,78.10
2017-08-17T20:34:00.457Z,78.20
2017-08-17T20:36:28.579Z,78.50
2017-08-17T20:38:56.233Z,79.00
2017-08-17T20:41:23.975Z,79.10
2017-08-17T20:43:51.678Z,79.10
2017-08-17T20:46:19.306Z,79.20
2017-08-17T20:48:47.008Z,79.20
2017-08-17T20:51:14.714Z,79.20
2017-08-17T20:53:42.413Z,79.60
2017-08-17T20:56:10.123Z,79.70
2017-08-17T20:58:37.999Z,80.10
2017-08-17T21:01:05.651Z,80.00
2017-08-17T21:03:33.298Z,79.90
2017-08-17T21:06:01.006Z,79.70
2017-08-17T21:08:28.649Z,79.50
2017-08-17T21:10:56.288Z,79.80
2017-08-17T21:13:24.077Z,80.20
2017-08-17T21:15:51.746Z,80.30
2017-08-17T21:18:19.378Z,80.20
2017-08-17T21:20:47.110Z,79.70
2017-08-17T21:23:14.753Z,79.10
2017-08-17T21:25:42.387Z,79.00
2017-08-17T21:28:10.147Z,79.20
2017-08-17T21:30:37.774Z,79.20
2017-08-17T21:33:05.438Z,78.90
2017-08-17T21:35:33.185Z,78.80
2017-08-17T21:38:00.828Z,78.70
2017-08-17T21:40:28.473Z,78.90
2017-08-17T21:42:56.170Z,79.30
2017-08-17T21:45:23.867Z,79.60
2017-08-17T21:47:51.612Z,79.60
2017-08-17T21:50:19.360Z,79.30
2017-08-17T21:52:46.995Z,79.40
2017-08-17T21:55:14.649Z,79.10
2017-08-17T21:57:42.397Z,79.00
2017-08-17T22:00:10.145Z,78.80
2017-08-17T22:02:37.791Z,78.60
2017-08-17T22:05:05.846Z,78.60
2017-08-17T22:07:33.592Z,78.60
2017-08-17T22:10:01.340Z,78.50
2017-08-17T22:12:29.091Z,78.40
2017-08-17T22:14:56.835Z,78.20
2017-08-17T22:17:24.478Z,78.30
2017-08-17T22:19:52.149Z,78.40
2017-08-17T22:22:19.871Z,78.40
2017-08-17T22:24:47.617Z,78.60
2017-08-17T22:27:15.365Z,78.80
2017-08-17T22:29:42.999Z,78.80
2017-08-17T22:32:10.635Z,78.90
2017-08-17T22:34:38.319Z,79.10
2017-08-17T22:37:05.982Z,79.20
2017-08-17T22:39:33.696Z,79.30
2017-08-17T22:42:01.394Z,79.20
2017-08-17T22:44:29.022Z,78.70
2017-08-17T22:46:56.730Z,78.90
2017-08-17T22:49:24.450Z,78.90
2017-08-17T22:51:52.078Z,79.10
2017-08-17T22:54:19.766Z,79.00
2017-08-17T22:56:47.459Z,79.10
2017-08-17T22:59:15.159Z,78.90
2017-08-17T23:01:42.815Z,79.00
2017-08-17T23:04:10.522Z,78.90
2017-08-17T23:06:38.170Z,79.10
2017-08-17T23:09:05.820Z,79.10
2017-08-17T23:11:33.693Z,79.10
2017-08-17T23:14:01.443Z,79.00
2017-08-17T23:16:29.085Z,79.20
2017-08-17T23:18:56.831Z,79.30
2017-08-17T23:21:24.479Z,79.30
2017-08-17T23:23:52.115Z,79.10
2017-08-17T23:26:19.869Z,79.10
2017-08-17T23:28:47.511Z,79.60
2017-08-17T23:31:15.154Z,79.70
2017-08-17T23:33:42.850Z,79.90
2017-08-17T23:36:10.477Z,80.20
2017-08-17T23:38:38.299Z,80.20
2017-08-17T23:41:06.147Z,80.40
2017-08-17T23:43:33.795Z,80.30
2017-08-17T23:46:01.439Z,80.20
2017-08-17T23:48:29.150Z,80.20
2017-08-17T23:50:56.831Z,80.10
2017-08-17T23:53:24.473Z,80.00
2017-08-17T23:55:52.163Z,79.90
2017-08-17T23:58:19.866Z,79.70
